Time;durP1;ratioP1;P1;durP2;ratioP2;P2;SDS_P1;SDS_P2;PMS_P1;PMS_P2;Temp;Humidity;BMP_temperature;BMP_pressure;BME280_temperature;BME280_humidity;BME280_pressure;Samples;Min_cycle;Max_cycle;Signal;HPM_P1;HPM_P2
2023/04/07 05:44:51;;;;;;;;;4.25;4.25;;;;;;;;5955150;22;46675;-68
2023/04/07 05:47:16;;;;;;;;;8.25;8.25;;;;;;;;5056734;28;49814;-72
2023/04/07 05:49:44;;;;;;;;;8.75;7.25;;;;;;;;5060091;28;50052;-75
2023/04/07 05:52:09;;;;;;;;;8.75;8.00;;;;;;;;5052055;28;49687;-75
2023/04/07 05:54:35;;;;;;;;;10.50;10.50;;;;;;;;5066049;28;49733;-76
2023/04/07 05:57:00;;;;;;;;;10.75;7.75;;;;;;;;5062426;28;49781;-71
2023/04/07 05:59:25;;;;;;;;;12.50;10.75;;;;;;;;5065947;28;50256;-75
2023/04/07 06:01:50;;;;;;;;;6.00;4.50;;;;;;;;5061498;28;49969;-75
2023/04/07 06:04:15;;;;;;;;;8.00;8.00;;;;;;;;5068570;28;50374;-75
2023/04/07 06:06:40;;;;;;;;;10.50;10.50;;;;;;;;5065129;28;50724;-75
2023/04/07 06:09:06;;;;;;;;;8.00;5.25;;;;;;;;5067568;28;49759;-74
2023/04/07 06:11:31;;;;;;;;;8.50;8.25;;;;;;;;5064318;28;49996;-74
2023/04/07 06:13:56;;;;;;;;;11.00;11.00;;;;;;;;5067285;28;50374;-75
2023/04/07 06:16:21;;;;;;;;;1.50;1.50;;;;;;;;5063504;28;49903;-73
2023/04/07 06:18:46;;;;;;;;;7.00;6.00;;;;;;;;5063825;28;49677;-73
2023/04/07 06:21:12;;;;;;;;;6.75;6.75;;;;;;;;5066582;28;50072;-73
2023/04/07 06:23:37;;;;;;;;;8.50;7.50;;;;;;;;5063927;28;49629;-73
2023/04/07 06:26:02;;;;;;;;;9.75;7.75;;;;;;;;5047999;28;51020;-73
2023/04/07 06:28:27;;;;;;;;;8.75;7.75;;;;;;;;5062511;28;49686;-73
2023/04/07 06:30:53;;;;;;;;;5.50;5.50;;;;;;;;5064173;28;50096;-73
2023/04/07 06:33:18;;;;;;;;;12.00;8.25;;;;;;;;5064183;28;50370;-73
2023/04/07 06:35:43;;;;;;;;;9.25;8.75;;;;;;;;5063730;28;50388;-74
2023/04/07 06:38:10;;;;;;;;;11.00;10.50;;;;;;;;5064292;28;50060;-73
2023/04/07 06:40:35;;;;;;;;;9.50;8.00;;;;;;;;5062482;28;50272;-74
2023/04/07 06:43:01;;;;;;;;;6.00;6.00;;;;;;;;5063117;28;50120;-73
2023/04/07 06:45:26;;;;;;;;;0.00;0.00;;;;;;;;5052754;28;49848;-73
2023/04/07 06:47:51;;;;;;;;;13.50;9.25;;;;;;;;5029492;28;49763;-74
2023/04/07 06:50:19;;;;;;;;;13.50;12.00;;;;;;;;5029675;28;49970;-73
2023/04/07 06:52:45;;;;;;;;;12.75;11.00;;;;;;;;5029887;28;50087;-74
2023/04/07 06:55:10;;;;;;;;;9.25;9.00;;;;;;;;5029033;28;50016;-73
2023/04/07 06:57:35;;;;;;;;;9.00;8.50;;;;;;;;5029628;28;50094;-74
2023/04/07 07:00:00;;;;;;;;;10.00;9.50;;;;;;;;5037047;28;49784;-73
2023/04/07 07:02:25;;;;;;;;;13.00;10.25;;;;;;;;5029839;28;49985;-73
2023/04/07 07:04:51;;;;;;;;;16.25;15.75;;;;;;;;5029663;28;49800;-73
2023/04/07 07:07:16;;;;;;;;;11.00;8.50;;;;;;;;5029561;28;50078;-73
2023/04/07 07:09:41;;;;;;;;;13.00;11.50;;;;;;;;5029502;28;49885;-73
2023/04/07 07:12:06;;;;;;;;;13.00;11.00;;;;;;;;5029502;28;50250;-74
2023/04/07 07:14:31;;;;;;;;;17.50;14.00;;;;;;;;5028999;28;49909;-74
2023/04/07 07:16:56;;;;;;;;;14.50;12.00;;;;;;;;5029300;28;49937;-74
2023/04/07 07:19:22;;;;;;;;;21.00;15.75;;;;;;;;5039377;28;49644;-73
2023/04/07 07:21:47;;;;;;;;;13.75;11.75;;;;;;;;5031058;28;49622;-75
2023/04/07 07:24:12;;;;;;;;;12.75;11.75;;;;;;;;5031175;28;49824;-72
2023/04/07 07:26:37;;;;;;;;;15.25;13.00;;;;;;;;5029193;28;49716;-75
2023/04/07 07:29:02;;;;;;;;;13.50;9.75;;;;;;;;5033908;28;50211;-76
2023/04/07 07:31:28;;;;;;;;;13.00;13.00;;;;;;;;5029064;28;49716;-72
2023/04/07 07:33:53;;;;;;;;;14.75;12.50;;;;;;;;5022429;28;51153;-73
2023/04/07 07:36:18;;;;;;;;;10.25;10.25;;;;;;;;5028238;28;49713;-72
2023/04/07 07:38:43;;;;;;;;;19.25;13.00;;;;;;;;5039844;28;49629;-72
2023/04/07 07:41:08;;;;;;;;;18.25;14.00;;;;;;;;5042907;28;49998;-72
2023/04/07 07:43:34;;;;;;;;;9.75;9.00;;;;;;;;5029215;28;50966;-72
2023/04/07 07:45:59;;;;;;;;;17.75;13.00;;;;;;;;5037801;28;49683;-73
2023/04/07 07:48:24;;;;;;;;;14.75;12.75;;;;;;;;5040687;28;49754;-73
2023/04/07 07:50:50;;;;;;;;;14.25;14.25;;;;;;;;5026955;28;50030;-73
2023/04/07 07:53:16;;;;;;;;;19.25;14.75;;;;;;;;5030766;28;50442;-73
2023/04/07 07:55:41;;;;;;;;;12.75;10.25;;;;;;;;5021230;28;50191;-73
2023/04/07 07:58:06;;;;;;;;;12.50;11.50;;;;;;;;5037949;28;49728;-74
2023/04/07 08:00:31;;;;;;;;;13.50;10.75;;;;;;;;5045100;28;50377;-73
2023/04/07 08:02:56;;;;;;;;;14.50;12.75;;;;;;;;5046352;28;51048;-72
2023/04/07 08:05:22;;;;;;;;;10.00;10.00;;;;;;;;5044261;28;50172;-74
2023/04/07 08:07:47;;;;;;;;;13.00;12.00;;;;;;;;5042860;28;49811;-74
2023/04/07 08:10:13;;;;;;;;;18.25;15.75;;;;;;;;5030409;28;50033;-73
2023/04/07 08:12:38;;;;;;;;;16.75;11.50;;;;;;;;5042469;28;49874;-74
2023/04/07 08:15:04;;;;;;;;;14.25;11.25;;;;;;;;5009968;28;49752;-74
2023/04/07 08:17:29;;;;;;;;;14.00;11.50;;;;;;;;5023978;28;51177;-73
2023/04/07 08:19:54;;;;;;;;;15.50;11.00;;;;;;;;5024647;28;50155;-72
2023/04/07 08:22:20;;;;;;;;;14.75;13.00;;;;;;;;5024031;28;49996;-73
2023/04/07 08:24:46;;;;;;;;;19.00;16.25;;;;;;;;5023314;28;50802;-73
2023/04/07 08:27:11;;;;;;;;;19.75;12.00;;;;;;;;5025340;28;49797;-74
2023/04/07 08:29:36;;;;;;;;;14.25;12.75;;;;;;;;5025233;28;49772;-73
2023/04/07 08:32:01;;;;;;;;;14.25;13.50;;;;;;;;5025401;28;50775;-74
2023/04/07 08:34:27;;;;;;;;;17.00;13.75;;;;;;;;5024932;28;49920;-74
2023/04/07 08:36:55;;;;;;;;;12.25;10.50;;;;;;;;5025077;28;49825;-74
2023/04/07 08:39:21;;;;;;;;;14.25;12.50;;;;;;;;5025760;28;50043;-74
2023/04/07 08:41:47;;;;;;;;;10.75;10.75;;;;;;;;5025469;28;49855;-73
2023/04/07 08:44:13;;;;;;;;;15.25;11.75;;;;;;;;5027510;28;49865;-74
2023/04/07 08:46:39;;;;;;;;;14.25;10.50;;;;;;;;5041833;28;49807;-73
2023/04/07 08:49:09;;;;;;;;;13.50;13.00;;;;;;;;5050077;28;49785;-73
2023/04/07 08:51:36;;;;;;;;;16.25;12.75;;;;;;;;5048646;28;49936;-73
2023/04/07 08:54:08;;;;;;;;;12.50;12.50;;;;;;;;5048778;28;50119;-75
2023/04/07 08:56:33;;;;;;;;;14.50;14.50;;;;;;;;5048658;28;49936;-74
2023/04/07 08:59:00;;;;;;;;;14.50;11.50;;;;;;;;5048754;28;50148;-73
2023/04/07 09:01:25;;;;;;;;;11.00;11.00;;;;;;;;5051369;28;52461;-74
2023/04/07 09:03:51;;;;;;;;;10.75;10.75;;;;;;;;5048632;28;49844;-73
2023/04/07 09:06:16;;;;;;;;;16.50;13.75;;;;;;;;5048296;28;50389;-73
2023/04/07 09:08:41;;;;;;;;;12.50;10.25;;;;;;;;5048891;28;50163;-74
2023/04/07 09:11:06;;;;;;;;;10.75;10.25;;;;;;;;5047822;28;49918;-74
2023/04/07 09:13:35;;;;;;;;;11.75;11.25;;;;;;;;5048203;28;49903;-74
2023/04/07 09:16:00;;;;;;;;;12.00;11.50;;;;;;;;5048355;28;50356;-75
2023/04/07 09:18:27;;;;;;;;;11.00;10.00;;;;;;;;5048739;28;49777;-75
2023/04/07 09:20:56;;;;;;;;;12.00;11.50;;;;;;;;5047661;28;49829;-74
2023/04/07 09:23:34;;;;;;;;;18.75;14.50;;;;;;;;5049044;28;50105;-75
2023/04/07 09:26:00;;;;;;;;;11.00;11.00;;;;;;;;5047928;28;49929;-75
2023/04/07 09:28:41;;;;;;;;;11.75;11.75;;;;;;;;5048452;28;49942;-76
2023/04/07 09:31:06;;;;;;;;;10.50;10.00;;;;;;;;5046710;28;50831;-78
2023/04/07 09:33:33;;;;;;;;;8.00;6.25;;;;;;;;5050166;28;50059;-75
2023/04/07 09:35:58;;;;;;;;;16.25;13.75;;;;;;;;5048498;28;50273;-75
2023/04/07 09:38:31;;;;;;;;;11.00;10.50;;;;;;;;5047575;28;50301;-74
2023/04/07 09:41:04;;;;;;;;;10.50;10.00;;;;;;;;5033070;28;51691;-74
2023/04/07 09:43:30;;;;;;;;;9.00;7.75;;;;;;;;5048387;28;50090;-75
2023/04/07 09:46:05;;;;;;;;;10.50;10.50;;;;;;;;5048216;28;49840;-75
2023/04/07 09:48:31;;;;;;;;;13.00;12.50;;;;;;;;5047046;28;49827;-74
2023/04/07 09:51:04;;;;;;;;;14.50;14.00;;;;;;;;5047789;28;50085;-74
2023/04/07 09:53:46;;;;;;;;;10.25;7.50;;;;;;;;5045083;28;49824;-74
2023/04/07 09:56:11;;;;;;;;;11.25;10.50;;;;;;;;5049604;28;49913;-74
2023/04/07 09:58:39;;;;;;;;;10.00;10.00;;;;;;;;5057222;28;50332;-73
2023/04/07 10:01:07;;;;;;;;;10.25;7.00;;;;;;;;5056727;28;50118;-73
2023/04/07 10:03:32;;;;;;;;;6.00;6.00;;;;;;;;5061716;28;50384;-75
2023/04/07 10:05:59;;;;;;;;;2.75;2.75;;;;;;;;5065419;28;51046;-80
2023/04/07 10:08:24;;;;;;;;;6.25;6.25;;;;;;;;5054915;28;49702;-78
2023/04/07 10:10:50;;;;;;;;;9.00;7.25;;;;;;;;5053167;28;50064;-76
2023/04/07 10:13:15;;;;;;;;;7.50;7.00;;;;;;;;5052703;28;49798;-75
2023/04/07 10:15:41;;;;;;;;;11.25;7.50;;;;;;;;5061699;28;50420;-74
2023/04/07 10:18:07;;;;;;;;;7.00;5.50;;;;;;;;5061251;28;50106;-73
2023/04/07 10:20:33;;;;;;;;;7.50;6.00;;;;;;;;5063730;28;49878;-74
2023/04/07 10:23:04;;;;;;;;;7.00;7.00;;;;;;;;5053347;28;50238;-74
2023/04/07 10:25:29;;;;;;;;;8.50;6.75;;;;;;;;5055851;28;50136;-75
2023/04/07 10:27:59;;;;;;;;;13.75;13.50;;;;;;;;5059776;28;49641;-74
2023/04/07 10:30:25;;;;;;;;;9.75;7.75;;;;;;;;5047517;28;50004;-75
2023/04/07 10:32:52;;;;;;;;;6.50;4.25;;;;;;;;5032653;28;50203;-75
2023/04/07 10:35:17;;;;;;;;;7.75;6.50;;;;;;;;5058445;28;49933;-76
2023/04/07 10:38:01;;;;;;;;;10.75;8.25;;;;;;;;5067281;28;49681;-75
2023/04/07 10:40:27;;;;;;;;;10.75;7.50;;;;;;;;5060648;28;50044;-75
2023/04/07 10:42:52;;;;;;;;;6.50;5.00;;;;;;;;5054794;28;50165;-76
2023/04/07 10:45:37;;;;;;;;;3.00;3.00;;;;;;;;5048825;28;50261;-75
2023/04/07 10:48:02;;;;;;;;;6.25;4.75;;;;;;;;5051372;28;49762;-75
2023/04/07 10:50:28;;;;;;;;;8.20;7.00;;;;;;;;5060370;28;50772;-76
2023/04/07 10:53:11;;;;;;;;;6.50;5.50;;;;;;;;5055483;28;50307;-75
2023/04/07 10:55:43;;;;;;;;;5.75;5.75;;;;;;;;5045768;28;50242;-74
2023/04/07 10:58:21;;;;;;;;;11.50;10.25;;;;;;;;5048371;28;50408;-74
2023/04/07 11:00:55;;;;;;;;;6.25;4.75;;;;;;;;5050730;28;49833;-75
2023/04/07 11:03:21;;;;;;;;;5.25;5.25;;;;;;;;5057256;28;50291;-75
2023/04/07 11:05:46;;;;;;;;;3.00;3.00;;;;;;;;5059971;28;49664;-76
2023/04/07 11:08:11;;;;;;;;;4.00;4.00;;;;;;;;5063784;28;49690;-76
2023/04/07 11:10:37;;;;;;;;;1.50;1.00;;;;;;;;5065005;28;50864;-75
2023/04/07 11:13:06;;;;;;;;;3.00;2.75;;;;;;;;5062853;28;49733;-75
2023/04/07 11:15:33;;;;;;;;;1.00;1.00;;;;;;;;5067106;28;50151;-75
2023/04/07 11:18:10;;;;;;;;;3.00;3.00;;;;;;;;5056452;28;50153;-75
2023/04/07 11:20:49;;;;;;;;;2.25;2.25;;;;;;;;5065779;28;50130;-75
2023/04/07 11:23:15;;;;;;;;;4.75;3.00;;;;;;;;5067501;28;50202;-76
2023/04/07 11:25:44;;;;;;;;;4.50;4.00;;;;;;;;5064825;28;49818;-75
2023/04/07 11:28:11;;;;;;;;;4.00;4.00;;;;;;;;5062305;28;50059;-74
2023/04/07 11:30:37;;;;;;;;;3.50;2.00;;;;;;;;5062323;28;50773;-76
2023/04/07 11:33:02;;;;;;;;;3.00;2.50;;;;;;;;5066147;28;49776;-76
2023/04/07 11:35:28;;;;;;;;;2.25;2.25;;;;;;;;5052376;28;49951;-75
2023/04/07 11:38:02;;;;;;;;;3.25;3.25;;;;;;;;5065846;28;50366;-76
2023/04/07 11:40:33;;;;;;;;;3.50;3.50;;;;;;;;5062344;28;50092;-76
2023/04/07 11:42:58;;;;;;;;;2.00;2.00;;;;;;;;5060322;28;49892;-76
2023/04/07 11:45:23;;;;;;;;;1.50;1.50;;;;;;;;5049768;28;49693;-77
2023/04/07 11:47:49;;;;;;;;;3.00;3.00;;;;;;;;5043922;28;50427;-76
2023/04/07 11:50:15;;;;;;;;;5.50;3.50;;;;;;;;5056144;28;50062;-76
2023/04/07 11:52:44;;;;;;;;;4.00;3.75;;;;;;;;5056883;28;49823;-76
2023/04/07 11:55:18;;;;;;;;;3.00;3.00;;;;;;;;5056205;28;49914;-76
2023/04/07 11:57:43;;;;;;;;;4.25;3.25;;;;;;;;5051111;28;49792;-76
2023/04/07 12:00:10;;;;;;;;;3.75;3.00;;;;;;;;5058410;28;49956;-76
2023/04/07 12:02:35;;;;;;;;;2.00;2.00;;;;;;;;5050530;28;50036;-76
2023/04/07 12:05:01;;;;;;;;;2.50;2.00;;;;;;;;5054157;28;49945;-76
2023/04/07 12:07:26;;;;;;;;;5.50;3.00;;;;;;;;5055052;28;49933;-75
2023/04/07 12:09:52;;;;;;;;;4.00;2.25;;;;;;;;5028958;28;51643;-75
2023/04/07 12:12:24;;;;;;;;;4.00;4.00;;;;;;;;5053149;28;49998;-75
2023/04/07 12:14:50;;;;;;;;;4.50;3.25;;;;;;;;5049006;28;50077;-76
2023/04/07 12:17:22;;;;;;;;;5.00;4.00;;;;;;;;5038277;28;50074;-76
2023/04/07 12:19:47;;;;;;;;;2.00;2.00;;;;;;;;5055424;28;50878;-76
2023/04/07 12:22:12;;;;;;;;;3.00;3.00;;;;;;;;5058854;28;50040;-76
2023/04/07 12:24:37;;;;;;;;;5.00;3.25;;;;;;;;5069267;28;49799;-76
2023/04/07 12:27:03;;;;;;;;;1.75;1.75;;;;;;;;5058275;28;50785;-76
2023/04/07 12:29:28;;;;;;;;;3.00;2.00;;;;;;;;5066647;28;52006;-76
2023/04/07 12:31:55;;;;;;;;;2.50;2.00;;;;;;;;5067145;28;49750;-76
2023/04/07 12:34:20;;;;;;;;;4.00;3.00;;;;;;;;5050178;28;49927;-75
2023/04/07 12:36:45;;;;;;;;;3.50;2.75;;;;;;;;5065907;28;49984;-76
2023/04/07 12:39:11;;;;;;;;;3.25;2.50;;;;;;;;5069095;28;50145;-76
2023/04/07 12:41:37;;;;;;;;;2.75;2.75;;;;;;;;5064935;28;49801;-75
2023/04/07 12:44:02;;;;;;;;;1.00;1.00;;;;;;;;5068348;28;49687;-76
2023/04/07 12:46:27;;;;;;;;;1.00;1.00;;;;;;;;5064900;28;50056;-77
2023/04/07 12:48:53;;;;;;;;;3.00;3.00;;;;;;;;5066976;28;50571;-76
2023/04/07 12:51:18;;;;;;;;;1.00;1.00;;;;;;;;5066068;28;50079;-76
2023/04/07 12:53:43;;;;;;;;;2.00;2.00;;;;;;;;5063455;28;50061;-76
2023/04/07 12:56:09;;;;;;;;;2.00;2.00;;;;;;;;5064048;28;49985;-76
2023/04/07 12:58:34;;;;;;;;;1.25;1.25;;;;;;;;5063169;28;50451;-76
2023/04/07 13:00:59;;;;;;;;;1.00;1.00;;;;;;;;5062870;28;49779;-76
2023/04/07 13:03:25;;;;;;;;;2.50;2.00;;;;;;;;5062181;28;50151;-76
2023/04/07 13:05:50;;;;;;;;;3.00;1.75;;;;;;;;5063549;28;49737;-76
2023/04/07 13:08:15;;;;;;;;;4.00;3.00;;;;;;;;5060556;28;49860;-76
2023/04/07 13:10:41;;;;;;;;;3.50;3.50;;;;;;;;5062021;28;50168;-76
2023/04/07 13:13:06;;;;;;;;;3.00;3.00;;;;;;;;5059509;28;49865;-77
2023/04/07 13:15:31;;;;;;;;;5.25;3.00;;;;;;;;5063715;28;49759;-76
2023/04/07 13:17:56;;;;;;;;;2.00;2.00;;;;;;;;5070520;28;51074;-76
2023/04/07 13:20:22;;;;;;;;;4.00;4.00;;;;;;;;5068969;28;49715;-76
2023/04/07 13:22:47;;;;;;;;;1.75;1.50;;;;;;;;5070038;28;50082;-76
2023/04/07 13:25:13;;;;;;;;;3.00;3.00;;;;;;;;5067588;28;49758;-76
2023/04/07 13:27:38;;;;;;;;;3.25;2.75;;;;;;;;5068667;28;50150;-76
2023/04/07 13:30:03;;;;;;;;;4.00;3.00;;;;;;;;5047786;28;50260;-77
2023/04/07 13:32:29;;;;;;;;;3.50;3.50;;;;;;;;5065773;28;49883;-76
2023/04/07 13:34:54;;;;;;;;;3.50;3.50;;;;;;;;5066842;28;50068;-77
2023/04/07 13:37:19;;;;;;;;;3.00;3.00;;;;;;;;5048752;28;52372;-76
2023/04/07 13:39:45;;;;;;;;;5.00;4.50;;;;;;;;5063707;28;50190;-77
2023/04/07 13:42:10;;;;;;;;;3.50;1.75;;;;;;;;5064372;28;49977;-77
2023/04/07 13:44:36;;;;;;;;;2.75;2.75;;;;;;;;5051908;28;49679;-83
2023/04/07 13:47:01;;;;;;;;;2.00;1.25;;;;;;;;5050542;28;50047;-86
2023/04/07 13:49:27;;;;;;;;;1.75;1.75;;;;;;;;5048316;28;50041;-89
2023/04/07 13:51:52;;;;;;;;;2.25;1.50;;;;;;;;5055009;28;50068;-89
2023/04/07 13:54:17;;;;;;;;;1.00;1.00;;;;;;;;5057793;28;49733;-90
2023/04/07 13:56:42;;;;;;;;;0.00;0.00;;;;;;;;5051020;28;50784;-77
2023/04/07 13:59:07;;;;;;;;;1.00;1.00;;;;;;;;5045654;28;49784;-75
2023/04/07 14:01:34;;;;;;;;;3.00;1.00;;;;;;;;5041365;28;51217;-75
2023/04/07 14:03:59;;;;;;;;;2.75;1.00;;;;;;;;5042476;28;51228;-75
2023/04/07 14:06:25;;;;;;;;;2.00;2.00;;;;;;;;5042783;28;51059;-76
2023/04/07 14:08:50;;;;;;;;;2.25;2.00;;;;;;;;5044690;28;50494;-74
2023/04/07 14:11:19;;;;;;;;;3.50;3.50;;;;;;;;5059354;28;49952;-74
2023/04/07 14:13:44;;;;;;;;;3.00;3.00;;;;;;;;5047540;28;49984;-75
2023/04/07 14:16:10;;;;;;;;;2.50;2.50;;;;;;;;5043872;28;50912;-75
2023/04/07 14:18:36;;;;;;;;;2.50;1.50;;;;;;;;5050057;28;50237;-75
2023/04/07 14:21:02;;;;;;;;;1.25;1.25;;;;;;;;5056081;28;50175;-74
2023/04/07 14:23:27;;;;;;;;;0.00;0.00;;;;;;;;5035970;28;51640;-74
2023/04/07 14:25:52;;;;;;;;;1.00;1.00;;;;;;;;5046251;28;50819;-74
2023/04/07 14:28:17;;;;;;;;;1.00;1.00;;;;;;;;5048445;28;49838;-76
2023/04/07 14:30:42;;;;;;;;;3.00;1.75;;;;;;;;5045656;28;51776;-73
2023/04/07 14:33:08;;;;;;;;;1.00;1.00;;;;;;;;5048909;28;50106;-74
2023/04/07 14:35:35;;;;;;;;;2.00;0.75;;;;;;;;5048817;28;50146;-74
2023/04/07 14:38:01;;;;;;;;;0.00;0.00;;;;;;;;5046962;28;49810;-75
2023/04/07 14:40:26;;;;;;;;;1.00;1.00;;;;;;;;5029541;28;50012;-76
2023/04/07 14:42:51;;;;;;;;;1.00;1.00;;;;;;;;5046410;28;51633;-75
2023/04/07 14:45:16;;;;;;;;;0.50;0.50;;;;;;;;5046043;28;50016;-75
2023/04/07 14:47:41;;;;;;;;;1.00;1.00;;;;;;;;5046035;28;49965;-73
2023/04/07 14:50:07;;;;;;;;;0.00;0.00;;;;;;;;5043208;28;50160;-74
2023/04/07 14:52:32;;;;;;;;;1.75;1.75;;;;;;;;5047657;28;50413;-75
2023/04/07 14:54:57;;;;;;;;;1.00;1.00;;;;;;;;5046018;28;50076;-75
2023/04/07 14:57:23;;;;;;;;;2.25;2.00;;;;;;;;5043198;28;49909;-75
2023/04/07 14:59:48;;;;;;;;;1.50;1.50;;;;;;;;5045716;28;49897;-75
2023/04/07 15:02:13;;;;;;;;;2.50;2.50;;;;;;;;5043706;28;50188;-74
2023/04/07 15:04:38;;;;;;;;;2.00;2.00;;;;;;;;5045288;28;49949;-74
2023/04/07 15:07:04;;;;;;;;;6.00;5.00;;;;;;;;5043968;28;50156;-74
2023/04/07 15:09:30;;;;;;;;;3.50;3.50;;;;;;;;5043738;28;50299;-74
2023/04/07 15:11:55;;;;;;;;;2.50;2.00;;;;;;;;5045192;28;51822;-74
2023/04/07 15:14:20;;;;;;;;;4.75;4.50;;;;;;;;5041406;28;51100;-74
2023/04/07 15:16:47;;;;;;;;;4.25;3.00;;;;;;;;5052069;28;50164;-74
2023/04/07 15:19:12;;;;;;;;;3.50;3.50;;;;;;;;5059983;28;49804;-76
2023/04/07 15:21:37;;;;;;;;;2.25;2.25;;;;;;;;5059720;28;49654;-69
2023/04/07 15:24:02;;;;;;;;;3.00;3.00;;;;;;;;5054796;28;50465;-70
2023/04/07 15:26:28;;;;;;;;;5.00;3.50;;;;;;;;5046514;28;49950;-71
2023/04/07 15:28:53;;;;;;;;;3.75;3.75;;;;;;;;5050939;28;50323;-69
2023/04/07 15:31:20;;;;;;;;;1.25;1.25;;;;;;;;5058205;28;50049;-68
2023/04/07 15:33:47;;;;;;;;;3.00;3.00;;;;;;;;5061050;28;49714;-69
2023/04/07 15:36:12;;;;;;;;;3.00;3.00;;;;;;;;5057756;28;49841;-68
2023/04/07 15:38:38;;;;;;;;;4.75;4.00;;;;;;;;5054765;28;50100;-70
2023/04/07 15:41:03;;;;;;;;;4.00;3.00;;;;;;;;5054751;28;49961;-71
2023/04/07 15:43:28;;;;;;;;;3.75;3.75;;;;;;;;5038994;28;50948;-71
2023/04/07 15:45:54;;;;;;;;;4.25;4.25;;;;;;;;5057085;28;50338;-69
2023/04/07 15:48:19;;;;;;;;;3.50;2.25;;;;;;;;5038158;28;50217;-71
2023/04/07 15:50:45;;;;;;;;;5.00;5.00;;;;;;;;5057635;28;49731;-71
2023/04/07 15:53:10;;;;;;;;;5.00;3.00;;;;;;;;5037288;28;51505;-70
2023/04/07 15:55:35;;;;;;;;;3.50;3.50;;;;;;;;5051911;28;49765;-70
2023/04/07 15:58:02;;;;;;;;;3.00;3.00;;;;;;;;5057769;28;50114;-70
2023/04/07 16:00:28;;;;;;;;;1.00;1.00;;;;;;;;5058858;28;49918;-71
2023/04/07 16:02:53;;;;;;;;;1.25;1.25;;;;;;;;5053403;28;49873;-71
2023/04/07 16:05:19;;;;;;;;;2.00;2.00;;;;;;;;5058999;28;49762;-71
2023/04/07 16:07:44;;;;;;;;;1.75;1.75;;;;;;;;5051274;28;50165;-71
2023/04/07 16:10:11;;;;;;;;;2.75;1.50;;;;;;;;5048322;28;49714;-71
2023/04/07 16:12:36;;;;;;;;;2.00;1.00;;;;;;;;5049935;28;50178;-73
2023/04/07 16:15:02;;;;;;;;;1.50;1.50;;;;;;;;5056739;28;49667;-72
2023/04/07 16:17:27;;;;;;;;;2.00;2.00;;;;;;;;5043455;28;50184;-72
2023/04/07 16:19:52;;;;;;;;;3.25;2.75;;;;;;;;5058040;28;50010;-71
2023/04/07 16:22:17;;;;;;;;;3.75;3.00;;;;;;;;5051828;28;51011;-71
2023/04/07 16:24:43;;;;;;;;;5.00;4.25;;;;;;;;5061740;28;50157;-71
2023/04/07 16:27:08;;;;;;;;;2.25;2.25;;;;;;;;5036794;28;49878;-71
2023/04/07 16:29:33;;;;;;;;;4.75;4.75;;;;;;;;5046703;28;50135;-71
2023/04/07 16:31:58;;;;;;;;;6.50;4.50;;;;;;;;5057691;28;50085;-73
2023/04/07 16:34:24;;;;;;;;;2.75;1.00;;;;;;;;5063051;28;49810;-73
2023/04/07 16:36:49;;;;;;;;;3.00;3.00;;;;;;;;5049764;28;50206;-72
2023/04/07 16:39:16;;;;;;;;;3.00;3.00;;;;;;;;5056268;28;49803;-73
2023/04/07 16:41:41;;;;;;;;;4.25;4.25;;;;;;;;5057209;28;51106;-83
2023/04/07 16:44:06;;;;;;;;;1.25;1.00;;;;;;;;5059638;28;49720;-79
2023/04/07 16:46:32;;;;;;;;;5.50;5.00;;;;;;;;5057713;28;50255;-73
2023/04/07 16:48:57;;;;;;;;;4.00;3.75;;;;;;;;5051595;28;50011;-74
2023/04/07 16:51:23;;;;;;;;;3.50;3.50;;;;;;;;5054067;28;51811;-73
2023/04/07 16:53:49;;;;;;;;;4.00;3.00;;;;;;;;5051478;28;49739;-75
2023/04/07 16:56:15;;;;;;;;;3.00;3.00;;;;;;;;5051722;28;50210;-74
2023/04/07 16:58:40;;;;;;;;;1.00;1.00;;;;;;;;5048057;28;50092;-75
2023/04/07 17:01:05;;;;;;;;;4.75;3.50;;;;;;;;5047578;28;50739;-73
2023/04/07 17:03:31;;;;;;;;;2.00;2.00;;;;;;;;5053376;28;50092;-73
2023/04/07 17:05:56;;;;;;;;;0.75;0.75;;;;;;;;5040615;28;49861;-75
2023/04/07 17:08:21;;;;;;;;;1.25;1.25;;;;;;;;5057966;28;50002;-80
2023/04/07 17:10:46;;;;;;;;;2.25;2.25;;;;;;;;5049111;28;51508;-78
2023/04/07 17:13:11;;;;;;;;;1.00;1.00;;;;;;;;5056083;28;50206;-73
2023/04/07 17:15:37;;;;;;;;;1.00;1.00;;;;;;;;5049971;28;49873;-72
2023/04/07 17:18:02;;;;;;;;;2.25;2.25;;;;;;;;5051316;28;50029;-76
2023/04/07 17:20:27;;;;;;;;;2.75;1.00;;;;;;;;5037479;28;52180;-77
2023/04/07 17:22:52;;;;;;;;;1.00;1.00;;;;;;;;5059284;28;49818;-77
2023/04/07 17:25:18;;;;;;;;;0.50;0.00;;;;;;;;5060795;28;49904;-78
2023/04/07 17:27:43;;;;;;;;;3.00;1.75;;;;;;;;5070232;28;50217;-78
2023/04/07 17:30:08;;;;;;;;;3.00;1.00;;;;;;;;5062793;28;50534;-77
2023/04/07 17:32:34;;;;;;;;;0.00;0.00;;;;;;;;5069149;28;49735;-79
2023/04/07 17:34:59;;;;;;;;;2.00;2.00;;;;;;;;5051961;28;49879;-80
2023/04/07 17:37:24;;;;;;;;;1.00;1.00;;;;;;;;5059291;28;50046;-80
2023/04/07 17:39:50;;;;;;;;;0.00;0.00;;;;;;;;5052278;28;50110;-80
2023/04/07 17:42:15;;;;;;;;;1.00;0.00;;;;;;;;5057448;28;49690;-80
2023/04/07 17:44:41;;;;;;;;;2.00;2.00;;;;;;;;5051401;28;50030;-79
2023/04/07 17:47:06;;;;;;;;;3.25;2.75;;;;;;;;5055949;28;49987;-79
2023/04/07 17:49:31;;;;;;;;;2.00;2.00;;;;;;;;5052909;28;50993;-75
2023/04/07 17:51:56;;;;;;;;;1.50;1.50;;;;;;;;5055069;28;49920;-75
2023/04/07 17:54:22;;;;;;;;;2.00;2.00;;;;;;;;5061750;28;49934;-79
2023/04/07 17:56:48;;;;;;;;;4.00;2.00;;;;;;;;5052262;28;50000;-79
2023/04/07 17:59:13;;;;;;;;;2.75;2.75;;;;;;;;5052441;28;50492;-78
2023/04/07 18:01:38;;;;;;;;;3.25;3.25;;;;;;;;5056997;28;49719;-77
2023/04/07 18:04:03;;;;;;;;;3.00;3.00;;;;;;;;5057845;28;50229;-77
2023/04/07 18:06:28;;;;;;;;;2.00;2.00;;;;;;;;5059530;28;50110;-77
2023/04/07 18:08:54;;;;;;;;;3.00;2.00;;;;;;;;5055143;28;50040;-78
2023/04/07 18:11:20;;;;;;;;;1.75;1.75;;;;;;;;5056907;28;49939;-78
2023/04/07 18:13:45;;;;;;;;;2.25;2.00;;;;;;;;5060491;28;49937;-73
2023/04/07 18:16:15;;;;;;;;;2.50;2.50;;;;;;;;5051558;28;49797;-82
2023/04/07 18:18:41;;;;;;;;;2.00;2.00;;;;;;;;5038768;28;52509;-80
2023/04/07 18:21:06;;;;;;;;;8.00;3.75;;;;;;;;5055432;28;49927;-81
2023/04/07 18:23:31;;;;;;;;;3.25;1.50;;;;;;;;5057095;28;49682;-81
2023/04/07 18:25:57;;;;;;;;;1.00;0.00;;;;;;;;5068529;28;49593;-81
2023/04/07 18:28:22;;;;;;;;;1.00;1.00;;;;;;;;5042985;28;51526;-82
2023/04/07 18:30:47;;;;;;;;;3.75;2.25;;;;;;;;5079698;28;50023;-79
2023/04/07 18:33:13;;;;;;;;;2.75;2.75;;;;;;;;5064621;28;49629;-80
2023/04/07 18:35:38;;;;;;;;;2.50;2.50;;;;;;;;5064249;28;50000;-82
2023/04/07 18:38:04;;;;;;;;;3.25;3.25;;;;;;;;5046064;28;53031;-82
2023/04/07 18:40:32;;;;;;;;;3.50;2.00;;;;;;;;5065874;28;49937;-82
2023/04/07 18:42:57;;;;;;;;;2.75;2.75;;;;;;;;5062513;28;50273;-82
2023/04/07 18:45:22;;;;;;;;;2.25;2.25;;;;;;;;5064133;28;50056;-82
2023/04/07 18:47:47;;;;;;;;;2.00;1.00;;;;;;;;5061218;28;50512;-83
2023/04/07 18:50:12;;;;;;;;;1.75;1.50;;;;;;;;5064496;28;49751;-82
2023/04/07 18:52:38;;;;;;;;;2.00;2.00;;;;;;;;5063279;28;49878;-82
2023/04/07 18:55:03;;;;;;;;;5.25;2.00;;;;;;;;5064255;28;49993;-82
2023/04/07 18:57:28;;;;;;;;;3.25;3.00;;;;;;;;5066265;28;50062;-82
2023/04/07 18:59:54;;;;;;;;;2.00;1.00;;;;;;;;5062634;28;50145;-81
2023/04/07 19:02:19;;;;;;;;;2.00;2.00;;;;;;;;5047023;28;49917;-81
2023/04/07 19:04:44;;;;;;;;;3.00;1.50;;;;;;;;5061569;28;50023;-80
2023/04/07 19:07:09;;;;;;;;;3.50;3.00;;;;;;;;5064863;28;50825;-81
2023/04/07 19:09:36;;;;;;;;;1.00;1.00;;;;;;;;5060790;28;49839;-81
2023/04/07 19:12:01;;;;;;;;;1.00;1.00;;;;;;;;5064985;28;50204;-82
2023/04/07 19:14:28;;;;;;;;;5.00;3.50;;;;;;;;5058978;28;49651;-81
2023/04/07 19:16:53;;;;;;;;;2.00;2.00;;;;;;;;5064329;28;49845;-81
2023/04/07 19:19:18;;;;;;;;;1.50;1.50;;;;;;;;5057240;28;49841;-80
2023/04/07 19:21:43;;;;;;;;;2.50;2.00;;;;;;;;5063741;28;49811;-80
2023/04/07 19:24:08;;;;;;;;;2.00;2.00;;;;;;;;5057557;28;49624;-81
2023/04/07 19:26:34;;;;;;;;;5.00;4.00;;;;;;;;5044672;28;50215;-81
2023/04/07 19:28:59;;;;;;;;;2.75;2.00;;;;;;;;5056521;28;49932;-82
2023/04/07 19:31:24;;;;;;;;;3.25;1.25;;;;;;;;5060987;28;49972;-81
2023/04/07 19:33:49;;;;;;;;;1.50;1.00;;;;;;;;5048859;28;50422;-80
2023/04/07 19:36:15;;;;;;;;;2.00;1.00;;;;;;;;5061772;28;50650;-80
2023/04/07 19:38:40;;;;;;;;;2.50;2.50;;;;;;;;5068987;28;50006;-82
2023/04/07 19:41:05;;;;;;;;;3.00;3.00;;;;;;;;5068807;28;49980;-81
2023/04/07 19:43:30;;;;;;;;;4.00;2.00;;;;;;;;5068121;28;50315;-81
2023/04/07 19:45:56;;;;;;;;;1.00;1.00;;;;;;;;5067278;28;52200;-80
2023/04/07 19:48:21;;;;;;;;;2.00;2.00;;;;;;;;5065230;28;49775;-82
2023/04/07 19:50:48;;;;;;;;;3.75;3.75;;;;;;;;5066785;28;49775;-81
2023/04/07 19:53:16;;;;;;;;;3.50;3.50;;;;;;;;5063625;28;49657;-81
2023/04/07 19:55:42;;;;;;;;;2.50;2.50;;;;;;;;5044070;28;50254;-81
2023/04/07 19:58:07;;;;;;;;;3.75;3.75;;;;;;;;5045138;28;49899;-77
2023/04/07 20:00:33;;;;;;;;;3.50;3.50;;;;;;;;5061331;28;50157;-76
2023/04/07 20:02:59;;;;;;;;;2.25;2.25;;;;;;;;5067522;28;49549;-80
2023/04/07 20:05:24;;;;;;;;;3.00;3.00;;;;;;;;5060023;28;50903;-81
2023/04/07 20:07:49;;;;;;;;;4.00;4.00;;;;;;;;5051155;28;49916;-81
